sensor_id;sensor_type;location;lat;lon;timestamp;temperature;humidity
70170;DHT22;57543;45.442;9.212;2023-02-26T00:02:35;12.25;72.83
70170;DHT22;57543;45.442;9.212;2023-02-26T00:05:39;12.07;73.58
70170;DHT22;57543;45.442;9.212;2023-02-26T00:08:42;12.01;74.46
70170;DHT22;57543;45.442;9.212;2023-02-26T00:11:47;12.05;74.38
70170;DHT22;57543;45.442;9.212;2023-02-26T00:14:51;12.01;74.21
70170;DHT22;57543;45.442;9.212;2023-02-26T00:18:00;12.04;74.28
70170;DHT22;57543;45.442;9.212;2023-02-26T00:21:05;12.04;74.54
70170;DHT22;57543;45.442;9.212;2023-02-26T00:24:09;12.07;74.38
70170;DHT22;57543;45.442;9.212;2023-02-26T00:27:12;12.17;74.17
70170;DHT22;57543;45.442;9.212;2023-02-26T00:30:17;12.29;73.72
70170;DHT22;57543;45.442;9.212;2023-02-26T00:33:22;12.32;73.23
70170;DHT22;57543;45.442;9.212;2023-02-26T00:36:43;12.28;73.07
70170;DHT22;57543;45.442;9.212;2023-02-26T00:40:14;12.18;73.35
70170;DHT22;57543;45.442;9.212;2023-02-26T00:43:23;12.27;73.06
70170;DHT22;57543;45.442;9.212;2023-02-26T00:50:18;12.34;72.66
70170;DHT22;57543;45.442;9.212;2023-02-26T00:53:33;12.18;72.88
70170;DHT22;57543;45.442;9.212;2023-02-26T00:56:38;12.11;73.14
70170;DHT22;57543;45.442;9.212;2023-02-26T00:59:42;12.18;73.16
70170;DHT22;57543;45.442;9.212;2023-02-26T01:02:46;12.21;72.94
70170;DHT22;57543;45.442;9.212;2023-02-26T01:05:49;12.22;72.81
70170;DHT22;57543;45.442;9.212;2023-02-26T01:09:06;12.28;72.48
70170;DHT22;57543;45.442;9.212;2023-02-26T01:12:13;12.25;72.53
70170;DHT22;57543;45.442;9.212;2023-02-26T01:15:18;12.07;72.73
70170;DHT22;57543;45.442;9.212;2023-02-26T01:18:33;11.91;73.01
70170;DHT22;57543;45.442;9.212;2023-02-26T01:21:50;11.95;73.13
70170;DHT22;57543;45.442;9.212;2023-02-26T01:25:06;11.97;72.95
70170;DHT22;57543;45.442;9.212;2023-02-26T01:28:10;12.00;72.87
70170;DHT22;57543;45.442;9.212;2023-02-26T01:31:32;11.89;72.98
70170;DHT22;57543;45.442;9.212;2023-02-26T01:37:58;11.87;73.03
70170;DHT22;57543;45.442;9.212;2023-02-26T01:41:28;11.90;72.76
70170;DHT22;57543;45.442;9.212;2023-02-26T01:45:14;11.94;72.64
70170;DHT22;57543;45.442;9.212;2023-02-26T01:48:18;11.84;72.61
70170;DHT22;57543;45.442;9.212;2023-02-26T01:51:44;11.74;72.82
70170;DHT22;57543;45.442;9.212;2023-02-26T01:54:48;11.55;73.48
70170;DHT22;57543;45.442;9.212;2023-02-26T01:57:55;11.51;73.70
70170;DHT22;57543;45.442;9.212;2023-02-26T02:01:00;11.40;73.68
70170;DHT22;57543;45.442;9.212;2023-02-26T02:04:07;11.31;73.83
70170;DHT22;57543;45.442;9.212;2023-02-26T02:07:12;11.12;74.27
70170;DHT22;57543;45.442;9.212;2023-02-26T02:10:16;11.01;74.97
70170;DHT22;57543;45.442;9.212;2023-02-26T02:13:34;10.97;74.90
70170;DHT22;57543;45.442;9.212;2023-02-26T02:16:58;10.92;75.00
70170;DHT22;57543;45.442;9.212;2023-02-26T02:23:57;10.93;74.83
70170;DHT22;57543;45.442;9.212;2023-02-26T02:27:07;10.94;74.81
70170;DHT22;57543;45.442;9.212;2023-02-26T02:37:14;10.80;74.86
70170;DHT22;57543;45.442;9.212;2023-02-26T02:40:30;10.77;75.21
70170;DHT22;57543;45.442;9.212;2023-02-26T02:43:36;10.75;75.56
70170;DHT22;57543;45.442;9.212;2023-02-26T02:46:42;10.72;75.40
70170;DHT22;57543;45.442;9.212;2023-02-26T02:50:06;10.50;76.32
70170;DHT22;57543;45.442;9.212;2023-02-26T02:53:16;10.49;76.70
70170;DHT22;57543;45.442;9.212;2023-02-26T02:56:33;10.50;76.73
70170;DHT22;57543;45.442;9.212;2023-02-26T02:59:43;10.65;76.63
70170;DHT22;57543;45.442;9.212;2023-02-26T03:03:00;10.72;76.49
70170;DHT22;57543;45.442;9.212;2023-02-26T03:06:06;10.75;76.13
70170;DHT22;57543;45.442;9.212;2023-02-26T03:09:10;10.70;76.06
70170;DHT22;57543;45.442;9.212;2023-02-26T03:12:17;10.63;76.13
70170;DHT22;57543;45.442;9.212;2023-02-26T03:15:43;10.60;76.34
70170;DHT22;57543;45.442;9.212;2023-02-26T03:19:26;10.55;76.36
70170;DHT22;57543;45.442;9.212;2023-02-26T03:30:02;10.39;76.52
70170;DHT22;57543;45.442;9.212;2023-02-26T03:33:16;10.32;76.78
70170;DHT22;57543;45.442;9.212;2023-02-26T03:36:45;10.34;76.73
70170;DHT22;57543;45.442;9.212;2023-02-26T03:39:58;10.38;76.60
70170;DHT22;57543;45.442;9.212;2023-02-26T03:43:07;10.38;76.26
70170;DHT22;57543;45.442;9.212;2023-02-26T03:46:16;10.46;75.85
70170;DHT22;57543;45.442;9.212;2023-02-26T03:49:26;10.65;75.29
70170;DHT22;57543;45.442;9.212;2023-02-26T03:52:34;10.77;74.51
70170;DHT22;57543;45.442;9.212;2023-02-26T03:56:25;10.77;72.78
70170;DHT22;57543;45.442;9.212;2023-02-26T04:00:04;10.86;72.00
70170;DHT22;57543;45.442;9.212;2023-02-26T04:03:27;11.01;69.99
70170;DHT22;57543;45.442;9.212;2023-02-26T04:06:32;11.07;69.01
70170;DHT22;57543;45.442;9.212;2023-02-26T04:09:42;11.11;68.11
70170;DHT22;57543;45.442;9.212;2023-02-26T04:12:46;11.08;67.38
70170;DHT22;57543;45.442;9.212;2023-02-26T04:15:50;11.04;67.30
70170;DHT22;57543;45.442;9.212;2023-02-26T04:18:54;11.11;67.01
70170;DHT22;57543;45.442;9.212;2023-02-26T04:21:57;11.14;66.86
70170;DHT22;57543;45.442;9.212;2023-02-26T04:25:01;11.10;66.70
70170;DHT22;57543;45.442;9.212;2023-02-26T04:28:05;11.10;67.27
70170;DHT22;57543;45.442;9.212;2023-02-26T04:31:10;11.14;67.20
70170;DHT22;57543;45.442;9.212;2023-02-26T04:34:15;11.14;67.42
70170;DHT22;57543;45.442;9.212;2023-02-26T04:37:19;11.12;67.66
70170;DHT22;57543;45.442;9.212;2023-02-26T04:40:22;11.04;68.08
70170;DHT22;57543;45.442;9.212;2023-02-26T04:43:26;10.96;68.75
70170;DHT22;57543;45.442;9.212;2023-02-26T04:46:48;11.03;68.96
70170;DHT22;57543;45.442;9.212;2023-02-26T04:49:52;10.93;69.64
70170;DHT22;57543;45.442;9.212;2023-02-26T04:52:56;10.84;70.67
70170;DHT22;57543;45.442;9.212;2023-02-26T04:56:00;10.86;70.87
70170;DHT22;57543;45.442;9.212;2023-02-26T04:59:04;10.73;72.00
70170;DHT22;57543;45.442;9.212;2023-02-26T05:02:08;10.87;71.97
70170;DHT22;57543;45.442;9.212;2023-02-26T05:05:16;10.89;72.18
70170;DHT22;57543;45.442;9.212;2023-02-26T05:08:20;10.83;72.77
70170;DHT22;57543;45.442;9.212;2023-02-26T05:11:24;10.89;72.97
70170;DHT22;57543;45.442;9.212;2023-02-26T05:14:28;10.58;74.49
70170;DHT22;57543;45.442;9.212;2023-02-26T05:17:31;10.08;76.82
70170;DHT22;57543;45.442;9.212;2023-02-26T05:20:36;9.87;77.54
70170;DHT22;57543;45.442;9.212;2023-02-26T05:23:39;9.51;78.29
70170;DHT22;57543;45.442;9.212;2023-02-26T05:26:43;9.38;75.01
70170;DHT22;57543;45.442;9.212;2023-02-26T05:29:47;9.32;73.68
70170;DHT22;57543;45.442;9.212;2023-02-26T05:32:51;9.08;71.67
70170;DHT22;57543;45.442;9.212;2023-02-26T05:35:55;8.81;71.86
70170;DHT22;57543;45.442;9.212;2023-02-26T05:38:59;8.87;71.29
70170;DHT22;57543;45.442;9.212;2023-02-26T05:42:03;8.93;71.04
70170;DHT22;57543;45.442;9.212;2023-02-26T05:45:08;8.99;71.24
70170;DHT22;57543;45.442;9.212;2023-02-26T05:48:11;9.03;71.33
70170;DHT22;57543;45.442;9.212;2023-02-26T05:51:15;8.99;71.06
70170;DHT22;57543;45.442;9.212;2023-02-26T05:54:19;8.81;69.74
70170;DHT22;57543;45.442;9.212;2023-02-26T05:57:23;8.84;69.18
70170;DHT22;57543;45.442;9.212;2023-02-26T06:00:27;8.73;68.93
70170;DHT22;57543;45.442;9.212;2023-02-26T06:03:31;8.65;68.91
70170;DHT22;57543;45.442;9.212;2023-02-26T06:06:34;8.61;68.91
70170;DHT22;57543;45.442;9.212;2023-02-26T06:09:38;8.58;68.92
70170;DHT22;57543;45.442;9.212;2023-02-26T06:12:42;8.53;68.62
70170;DHT22;57543;45.442;9.212;2023-02-26T06:15:49;8.49;68.71
70170;DHT22;57543;45.442;9.212;2023-02-26T06:18:54;8.45;69.00
70170;DHT22;57543;45.442;9.212;2023-02-26T06:21:58;8.42;69.17
70170;DHT22;57543;45.442;9.212;2023-02-26T06:25:01;8.27;69.64
70170;DHT22;57543;45.442;9.212;2023-02-26T06:28:05;8.46;69.47
70170;DHT22;57543;45.442;9.212;2023-02-26T06:31:09;8.30;70.13
70170;DHT22;57543;45.442;9.212;2023-02-26T06:34:13;8.31;70.46
70170;DHT22;57543;45.442;9.212;2023-02-26T06:37:16;8.31;70.70
70170;DHT22;57543;45.442;9.212;2023-02-26T06:40:20;8.21;70.86
70170;DHT22;57543;45.442;9.212;2023-02-26T06:43:24;8.25;70.93
70170;DHT22;57543;45.442;9.212;2023-02-26T06:46:28;8.20;71.58
70170;DHT22;57543;45.442;9.212;2023-02-26T06:49:32;8.07;72.88
70170;DHT22;57543;45.442;9.212;2023-02-26T06:52:35;8.28;72.75
70170;DHT22;57543;45.442;9.212;2023-02-26T06:55:50;8.07;73.34
70170;DHT22;57543;45.442;9.212;2023-02-26T06:58:54;8.13;73.37
70170;DHT22;57543;45.442;9.212;2023-02-26T07:01:57;8.07;73.54
70170;DHT22;57543;45.442;9.212;2023-02-26T07:05:01;8.00;72.56
70170;DHT22;57543;45.442;9.212;2023-02-26T07:08:05;8.13;72.85
70170;DHT22;57543;45.442;9.212;2023-02-26T07:11:09;8.18;73.14
70170;DHT22;57543;45.442;9.212;2023-02-26T07:14:13;8.04;73.30
70170;DHT22;57543;45.442;9.212;2023-02-26T07:17:16;7.87;72.52
70170;DHT22;57543;45.442;9.212;2023-02-26T07:20:23;7.96;72.87
70170;DHT22;57543;45.442;9.212;2023-02-26T07:23:26;8.16;72.74
70170;DHT22;57543;45.442;9.212;2023-02-26T07:26:29;8.14;72.30
70170;DHT22;57543;45.442;9.212;2023-02-26T07:29:33;7.79;72.49
70170;DHT22;57543;45.442;9.212;2023-02-26T07:32:37;7.71;72.90
70170;DHT22;57543;45.442;9.212;2023-02-26T07:35:41;7.72;72.54
70170;DHT22;57543;45.442;9.212;2023-02-26T07:38:44;7.76;73.12
70170;DHT22;57543;45.442;9.212;2023-02-26T07:41:48;7.56;72.59
70170;DHT22;57543;45.442;9.212;2023-02-26T07:44:52;7.52;72.56
70170;DHT22;57543;45.442;9.212;2023-02-26T07:47:55;7.65;72.73
70170;DHT22;57543;45.442;9.212;2023-02-26T07:50:59;7.54;72.75
70170;DHT22;57543;45.442;9.212;2023-02-26T07:54:03;7.62;71.93
70170;DHT22;57543;45.442;9.212;2023-02-26T07:57:07;7.51;72.27
70170;DHT22;57543;45.442;9.212;2023-02-26T08:00:12;7.31;72.21
70170;DHT22;57543;45.442;9.212;2023-02-26T08:03:16;7.38;72.04
70170;DHT22;57543;45.442;9.212;2023-02-26T08:06:19;7.35;72.85
70170;DHT22;57543;45.442;9.212;2023-02-26T08:09:24;7.47;73.25
70170;DHT22;57543;45.442;9.212;2023-02-26T08:12:28;7.28;72.52
70170;DHT22;57543;45.442;9.212;2023-02-26T08:15:32;7.34;72.33
70170;DHT22;57543;45.442;9.212;2023-02-26T08:18:35;7.54;72.48
70170;DHT22;57543;45.442;9.212;2023-02-26T08:21:39;7.38;72.57
70170;DHT22;57543;45.442;9.212;2023-02-26T08:24:43;7.27;73.21
70170;DHT22;57543;45.442;9.212;2023-02-26T08:27:46;7.23;72.97
70170;DHT22;57543;45.442;9.212;2023-02-26T08:30:53;7.18;74.24
70170;DHT22;57543;45.442;9.212;2023-02-26T08:33:58;7.10;73.59
70170;DHT22;57543;45.442;9.212;2023-02-26T08:37:01;7.00;74.83
70170;DHT22;57543;45.442;9.212;2023-02-26T08:40:05;7.27;73.51
70170;DHT22;57543;45.442;9.212;2023-02-26T08:43:10;7.34;73.45
70170;DHT22;57543;45.442;9.212;2023-02-26T08:46:14;7.35;72.49
70170;DHT22;57543;45.442;9.212;2023-02-26T08:49:18;7.31;72.59
70170;DHT22;57543;45.442;9.212;2023-02-26T08:52:22;7.54;72.49
70170;DHT22;57543;45.442;9.212;2023-02-26T08:55:26;7.34;70.48
70170;DHT22;57543;45.442;9.212;2023-02-26T08:58:30;7.47;71.31
70170;DHT22;57543;45.442;9.212;2023-02-26T09:01:34;7.47;70.86
70170;DHT22;57543;45.442;9.212;2023-02-26T09:04:37;7.23;70.83
70170;DHT22;57543;45.442;9.212;2023-02-26T09:07:42;7.47;70.82
70170;DHT22;57543;45.442;9.212;2023-02-26T09:10:46;7.18;69.63
70170;DHT22;57543;45.442;9.212;2023-02-26T09:13:50;7.21;71.07
70170;DHT22;57543;45.442;9.212;2023-02-26T09:16:53;7.41;71.11
70170;DHT22;57543;45.442;9.212;2023-02-26T09:19:57;7.38;69.32
70170;DHT22;57543;45.442;9.212;2023-02-26T09:23:01;7.27;68.43
70170;DHT22;57543;45.442;9.212;2023-02-26T09:26:04;7.27;69.32
70170;DHT22;57543;45.442;9.212;2023-02-26T09:29:09;7.07;68.15
70170;DHT22;57543;45.442;9.212;2023-02-26T09:32:14;7.06;68.17
70170;DHT22;57543;45.442;9.212;2023-02-26T09:35:17;7.04;68.84
70170;DHT22;57543;45.442;9.212;2023-02-26T09:38:21;6.89;68.82
70170;DHT22;57543;45.442;9.212;2023-02-26T09:41:31;6.93;69.17
70170;DHT22;57543;45.442;9.212;2023-02-26T09:44:37;6.68;69.77
70170;DHT22;57543;45.442;9.212;2023-02-26T09:47:46;6.83;69.25
70170;DHT22;57543;45.442;9.212;2023-02-26T09:50:56;6.83;68.91
70170;DHT22;57543;45.442;9.212;2023-02-26T09:54:07;6.73;69.19
70170;DHT22;57543;45.442;9.212;2023-02-26T09:57:29;6.61;69.75
70170;DHT22;57543;45.442;9.212;2023-02-26T10:07:19;6.73;71.16
70170;DHT22;57543;45.442;9.212;2023-02-26T10:23:55;6.86;71.57
70170;DHT22;57543;45.442;9.212;2023-02-26T10:27:08;7.03;71.36
70170;DHT22;57543;45.442;9.212;2023-02-26T10:30:29;6.97;71.95
70170;DHT22;57543;45.442;9.212;2023-02-26T10:40:58;6.69;71.94
70170;DHT22;57543;45.442;9.212;2023-02-26T10:45:21;6.59;72.97
70170;DHT22;57543;45.442;9.212;2023-02-26T10:51:31;6.51;72.84
70170;DHT22;57543;45.442;9.212;2023-02-26T10:54:40;6.65;73.18
70170;DHT22;57543;45.442;9.212;2023-02-26T10:58:12;6.76;71.73
70170;DHT22;57543;45.442;9.212;2023-02-26T11:01:19;7.03;71.98
70170;DHT22;57543;45.442;9.212;2023-02-26T11:04:24;7.00;71.67
70170;DHT22;57543;45.442;9.212;2023-02-26T11:07:30;6.88;70.64
70170;DHT22;57543;45.442;9.212;2023-02-26T11:10:50;7.00;70.38
70170;DHT22;57543;45.442;9.212;2023-02-26T11:13:53;7.00;70.73
70170;DHT22;57543;45.442;9.212;2023-02-26T11:17:01;7.28;69.88
70170;DHT22;57543;45.442;9.212;2023-02-26T11:20:23;7.30;70.29
70170;DHT22;57543;45.442;9.212;2023-02-26T11:23:30;7.40;68.93
70170;DHT22;57543;45.442;9.212;2023-02-26T11:26:36;7.56;67.94
70170;DHT22;57543;45.442;9.212;2023-02-26T11:29:48;7.66;66.19
70170;DHT22;57543;45.442;9.212;2023-02-26T11:32:53;7.90;62.98
70170;DHT22;57543;45.442;9.212;2023-02-26T11:36:00;7.86;62.89
70170;DHT22;57543;45.442;9.212;2023-02-26T11:39:09;8.00;61.64
70170;DHT22;57543;45.442;9.212;2023-02-26T11:42:17;7.96;60.23
70170;DHT22;57543;45.442;9.212;2023-02-26T11:45:21;8.20;60.58
70170;DHT22;57543;45.442;9.212;2023-02-26T11:48:30;8.37;59.59
70170;DHT22;57543;45.442;9.212;2023-02-26T11:51:35;8.53;59.76
70170;DHT22;57543;45.442;9.212;2023-02-26T11:54:39;8.65;57.94
70170;DHT22;57543;45.442;9.212;2023-02-26T11:57:43;8.83;58.06
70170;DHT22;57543;45.442;9.212;2023-02-26T12:00:47;9.00;57.87
70170;DHT22;57543;45.442;9.212;2023-02-26T12:03:52;9.01;60.27
70170;DHT22;57543;45.442;9.212;2023-02-26T12:06:56;8.68;63.35
70170;DHT22;57543;45.442;9.212;2023-02-26T12:10:00;8.35;65.73
70170;DHT22;57543;45.442;9.212;2023-02-26T12:13:29;8.06;66.23
70170;DHT22;57543;45.442;9.212;2023-02-26T12:17:00;8.24;65.80
70170;DHT22;57543;45.442;9.212;2023-02-26T12:20:25;8.17;66.69
70170;DHT22;57543;45.442;9.212;2023-02-26T12:40:26;7.11;70.08
70170;DHT22;57543;45.442;9.212;2023-02-26T12:43:49;7.23;69.54
70170;DHT22;57543;45.442;9.212;2023-02-26T12:57:53;7.18;68.77
70170;DHT22;57543;45.442;9.212;2023-02-26T13:01:22;7.17;69.49
70170;DHT22;57543;45.442;9.212;2023-02-26T13:11:44;7.30;67.07
70170;DHT22;57543;45.442;9.212;2023-02-26T13:15:09;7.43;67.36
70170;DHT22;57543;45.442;9.212;2023-02-26T13:18:38;7.52;67.59
70170;DHT22;57543;45.442;9.212;2023-02-26T13:21:50;7.66;67.00
70170;DHT22;57543;45.442;9.212;2023-02-26T13:28:44;7.90;66.70
70170;DHT22;57543;45.442;9.212;2023-02-26T13:31:54;7.97;65.67
70170;DHT22;57543;45.442;9.212;2023-02-26T13:35:03;7.50;67.00
70170;DHT22;57543;45.442;9.212;2023-02-26T13:38:22;7.66;66.75
70170;DHT22;57543;45.442;9.212;2023-02-26T13:51:42;8.18;64.88
70170;DHT22;57543;45.442;9.212;2023-02-26T13:54:47;8.37;64.78
70170;DHT22;57543;45.442;9.212;2023-02-26T13:57:51;8.42;64.21
70170;DHT22;57543;45.442;9.212;2023-02-26T14:01:09;8.40;65.06
70170;DHT22;57543;45.442;9.212;2023-02-26T14:07:51;8.48;63.81
70170;DHT22;57543;45.442;9.212;2023-02-26T14:11:01;8.53;63.69
70170;DHT22;57543;45.442;9.212;2023-02-26T14:23:33;8.65;63.96
70170;DHT22;57543;45.442;9.212;2023-02-26T14:26:43;8.62;63.18
70170;DHT22;57543;45.442;9.212;2023-02-26T14:33:16;8.73;62.89
70170;DHT22;57543;45.442;9.212;2023-02-26T14:36:36;8.84;62.33
70170;DHT22;57543;45.442;9.212;2023-02-26T14:39:45;8.81;61.68
70170;DHT22;57543;45.442;9.212;2023-02-26T14:42:56;8.97;61.27
70170;DHT22;57543;45.442;9.212;2023-02-26T14:46:03;9.04;61.80
70170;DHT22;57543;45.442;9.212;2023-02-26T14:49:24;9.07;60.48
70170;DHT22;57543;45.442;9.212;2023-02-26T15:02:32;9.13;59.67
70170;DHT22;57543;45.442;9.212;2023-02-26T15:05:48;8.72;55.90
70170;DHT22;57543;45.442;9.212;2023-02-26T15:09:18;8.27;56.46
70170;DHT22;57543;45.442;9.212;2023-02-26T15:18:58;7.56;61.14
70170;DHT22;57543;45.442;9.212;2023-02-26T15:22:27;7.56;61.27
70170;DHT22;57543;45.442;9.212;2023-02-26T15:25:36;7.61;61.84
70170;DHT22;57543;45.442;9.212;2023-02-26T15:28:41;7.62;62.94
70170;DHT22;57543;45.442;9.212;2023-02-26T15:31:53;7.37;65.84
70170;DHT22;57543;45.442;9.212;2023-02-26T15:35:06;7.31;66.60
70170;DHT22;57543;45.442;9.212;2023-02-26T15:38:09;7.38;66.15
70170;DHT22;57543;45.442;9.212;2023-02-26T15:41:14;6.95;68.61
70170;DHT22;57543;45.442;9.212;2023-02-26T15:44:24;6.83;69.59
70170;DHT22;57543;45.442;9.212;2023-02-26T15:47:29;6.78;70.20
70170;DHT22;57543;45.442;9.212;2023-02-26T15:50:36;7.00;70.77
70170;DHT22;57543;45.442;9.212;2023-02-26T15:53:44;7.14;70.15
70170;DHT22;57543;45.442;9.212;2023-02-26T15:56:49;7.38;70.17
70170;DHT22;57543;45.442;9.212;2023-02-26T16:00:00;7.47;69.20
70170;DHT22;57543;45.442;9.212;2023-02-26T16:03:16;7.35;68.96
70170;DHT22;57543;45.442;9.212;2023-02-26T16:06:35;7.01;67.30
70170;DHT22;57543;45.442;9.212;2023-02-26T16:09:45;6.95;67.00
70170;DHT22;57543;45.442;9.212;2023-02-26T16:12:50;7.13;67.48
70170;DHT22;57543;45.442;9.212;2023-02-26T16:16:10;7.21;67.40
70170;DHT22;57543;45.442;9.212;2023-02-26T16:19:15;7.27;67.33
70170;DHT22;57543;45.442;9.212;2023-02-26T16:22:34;7.37;67.43
70170;DHT22;57543;45.442;9.212;2023-02-26T16:25:46;7.62;67.33
70170;DHT22;57543;45.442;9.212;2023-02-26T16:28:56;7.75;67.17
70170;DHT22;57543;45.442;9.212;2023-02-26T16:32:02;7.82;66.90
70170;DHT22;57543;45.442;9.212;2023-02-26T16:35:16;7.66;65.97
70170;DHT22;57543;45.442;9.212;2023-02-26T16:38:42;7.62;66.15
70170;DHT22;57543;45.442;9.212;2023-02-26T16:41:48;7.72;65.71
70170;DHT22;57543;45.442;9.212;2023-02-26T16:48:28;7.78;65.49
70170;DHT22;57543;45.442;9.212;2023-02-26T16:51:35;7.90;65.55
70170;DHT22;57543;45.442;9.212;2023-02-26T16:54:41;7.97;65.28
70170;DHT22;57543;45.442;9.212;2023-02-26T16:57:46;7.99;64.79
70170;DHT22;57543;45.442;9.212;2023-02-26T17:01:16;7.86;65.14
70170;DHT22;57543;45.442;9.212;2023-02-26T17:04:21;7.96;65.22
70170;DHT22;57543;45.442;9.212;2023-02-26T17:10:34;8.04;64.82
70170;DHT22;57543;45.442;9.212;2023-02-26T17:13:40;8.11;64.65
70170;DHT22;57543;45.442;9.212;2023-02-26T17:16:45;8.04;63.86
70170;DHT22;57543;45.442;9.212;2023-02-26T17:19:49;8.01;63.29
70170;DHT22;57543;45.442;9.212;2023-02-26T17:22:54;8.07;63.35
70170;DHT22;57543;45.442;9.212;2023-02-26T17:25:58;7.89;63.38
70170;DHT22;57543;45.442;9.212;2023-02-26T17:29:04;7.65;62.85
70170;DHT22;57543;45.442;9.212;2023-02-26T17:32:20;7.65;63.41
70170;DHT22;57543;45.442;9.212;2023-02-26T17:35:26;7.50;64.42
70170;DHT22;57543;45.442;9.212;2023-02-26T17:38:30;7.65;64.26
70170;DHT22;57543;45.442;9.212;2023-02-26T17:41:35;7.82;63.95
70170;DHT22;57543;45.442;9.212;2023-02-26T17:44:39;7.75;63.74
70170;DHT22;57543;45.442;9.212;2023-02-26T17:47:43;7.56;64.47
70170;DHT22;57543;45.442;9.212;2023-02-26T17:50:50;7.66;64.65
70170;DHT22;57543;45.442;9.212;2023-02-26T17:53:54;7.82;64.73
70170;DHT22;57543;45.442;9.212;2023-02-26T17:56:57;7.91;64.62
70170;DHT22;57543;45.442;9.212;2023-02-26T18:00:02;8.00;64.25
70170;DHT22;57543;45.442;9.212;2023-02-26T18:03:11;8.01;64.04
70170;DHT22;57543;45.442;9.212;2023-02-26T18:06:15;8.07;64.13
70170;DHT22;57543;45.442;9.212;2023-02-26T18:09:19;7.89;64.67
70170;DHT22;57543;45.442;9.212;2023-02-26T18:12:23;7.76;65.07
70170;DHT22;57543;45.442;9.212;2023-02-26T18:15:26;7.59;64.86
70170;DHT22;57543;45.442;9.212;2023-02-26T18:18:31;7.41;64.67
70170;DHT22;57543;45.442;9.212;2023-02-26T18:21:35;7.14;65.60
70170;DHT22;57543;45.442;9.212;2023-02-26T18:24:39;6.81;66.79
70170;DHT22;57543;45.442;9.212;2023-02-26T18:27:46;6.83;66.94
70170;DHT22;57543;45.442;9.212;2023-02-26T18:30:53;6.59;68.35
70170;DHT22;57543;45.442;9.212;2023-02-26T18:33:57;6.68;68.70
70170;DHT22;57543;45.442;9.212;2023-02-26T18:37:00;6.75;68.80
70170;DHT22;57543;45.442;9.212;2023-02-26T18:40:07;6.59;69.51
70170;DHT22;57543;45.442;9.212;2023-02-26T18:43:11;6.51;69.95
70170;DHT22;57543;45.442;9.212;2023-02-26T18:46:14;6.64;70.18
70170;DHT22;57543;45.442;9.212;2023-02-26T18:49:18;6.56;70.64
70170;DHT22;57543;45.442;9.212;2023-02-26T18:52:23;6.58;69.85
70170;DHT22;57543;45.442;9.212;2023-02-26T18:55:27;6.33;70.59
70170;DHT22;57543;45.442;9.212;2023-02-26T18:58:31;6.13;70.75
70170;DHT22;57543;45.442;9.212;2023-02-26T19:01:34;5.93;71.25
70170;DHT22;57543;45.442;9.212;2023-02-26T19:04:39;6.02;71.72
70170;DHT22;57543;45.442;9.212;2023-02-26T19:07:43;6.09;71.63
70170;DHT22;57543;45.442;9.212;2023-02-26T19:10:47;6.26;71.32
70170;DHT22;57543;45.442;9.212;2023-02-26T19:13:51;6.07;71.58
70170;DHT22;57543;45.442;9.212;2023-02-26T19:16:54;6.28;71.55
70170;DHT22;57543;45.442;9.212;2023-02-26T19:19:57;6.24;70.79
70170;DHT22;57543;45.442;9.212;2023-02-26T19:23:01;6.26;70.82
70170;DHT22;57543;45.442;9.212;2023-02-26T19:26:05;6.30;71.29
70170;DHT22;57543;45.442;9.212;2023-02-26T19:29:13;6.24;71.33
70170;DHT22;57543;45.442;9.212;2023-02-26T19:32:17;6.23;71.88
70170;DHT22;57543;45.442;9.212;2023-02-26T19:35:21;6.18;71.82
70170;DHT22;57543;45.442;9.212;2023-02-26T19:38:25;6.28;72.04
70170;DHT22;57543;45.442;9.212;2023-02-26T19:41:29;6.48;71.59
70170;DHT22;57543;45.442;9.212;2023-02-26T19:44:32;6.46;71.30
70170;DHT22;57543;45.442;9.212;2023-02-26T19:47:36;6.61;71.16
70170;DHT22;57543;45.442;9.212;2023-02-26T19:50:40;6.75;70.91
70170;DHT22;57543;45.442;9.212;2023-02-26T19:53:44;6.68;70.52
70170;DHT22;57543;45.442;9.212;2023-02-26T19:56:48;6.68;71.04
70170;DHT22;57543;45.442;9.212;2023-02-26T19:59:52;6.69;70.35
70170;DHT22;57543;45.442;9.212;2023-02-26T20:02:56;6.62;70.24
70170;DHT22;57543;45.442;9.212;2023-02-26T20:06:01;6.81;69.87
70170;DHT22;57543;45.442;9.212;2023-02-26T20:09:05;6.93;69.70
70170;DHT22;57543;45.442;9.212;2023-02-26T20:12:12;6.72;69.66
70170;DHT22;57543;45.442;9.212;2023-02-26T20:15:15;6.88;69.51
70170;DHT22;57543;45.442;9.212;2023-02-26T20:18:19;6.89;69.21
70170;DHT22;57543;45.442;9.212;2023-02-26T20:21:23;6.82;69.57
70170;DHT22;57543;45.442;9.212;2023-02-26T20:24:29;6.79;69.86
70170;DHT22;57543;45.442;9.212;2023-02-26T20:27:35;6.69;69.58
70170;DHT22;57543;45.442;9.212;2023-02-26T20:30:39;6.85;69.77
70170;DHT22;57543;45.442;9.212;2023-02-26T20:33:43;6.75;70.04
70170;DHT22;57543;45.442;9.212;2023-02-26T20:36:47;6.90;69.98
70170;DHT22;57543;45.442;9.212;2023-02-26T20:39:52;7.01;69.77
70170;DHT22;57543;45.442;9.212;2023-02-26T20:42:55;7.17;69.37
70170;DHT22;57543;45.442;9.212;2023-02-26T20:46:00;7.18;69.25
70170;DHT22;57543;45.442;9.212;2023-02-26T20:49:05;6.95;68.46
70170;DHT22;57543;45.442;9.212;2023-02-26T20:52:13;6.67;69.60
70170;DHT22;57543;45.442;9.212;2023-02-26T20:55:17;6.30;70.65
70170;DHT22;57543;45.442;9.212;2023-02-26T20:58:22;6.18;72.85
70170;DHT22;57543;45.442;9.212;2023-02-26T21:01:26;6.33;72.90
70170;DHT22;57543;45.442;9.212;2023-02-26T21:04:38;6.33;70.55
70170;DHT22;57543;45.442;9.212;2023-02-26T21:07:42;6.18;71.25
70170;DHT22;57543;45.442;9.212;2023-02-26T21:10:48;6.18;72.06
70170;DHT22;57543;45.442;9.212;2023-02-26T21:13:52;6.09;72.91
70170;DHT22;57543;45.442;9.212;2023-02-26T21:16:57;6.13;72.40
70170;DHT22;57543;45.442;9.212;2023-02-26T21:20:02;6.26;73.20
70170;DHT22;57543;45.442;9.212;2023-02-26T21:23:07;6.33;73.33
70170;DHT22;57543;45.442;9.212;2023-02-26T21:26:11;6.54;72.96
70170;DHT22;57543;45.442;9.212;2023-02-26T21:29:15;6.65;72.35
70170;DHT22;57543;45.442;9.212;2023-02-26T21:32:19;6.75;71.92
70170;DHT22;57543;45.442;9.212;2023-02-26T21:35:23;6.73;72.48
70170;DHT22;57543;45.442;9.212;2023-02-26T21:38:27;6.83;72.29
70170;DHT22;57543;45.442;9.212;2023-02-26T21:41:30;6.88;71.81
70170;DHT22;57543;45.442;9.212;2023-02-26T21:44:34;6.83;70.87
70170;DHT22;57543;45.442;9.212;2023-02-26T21:47:38;6.81;71.43
70170;DHT22;57543;45.442;9.212;2023-02-26T21:50:41;6.69;71.83
70170;DHT22;57543;45.442;9.212;2023-02-26T21:53:46;6.73;71.99
70170;DHT22;57543;45.442;9.212;2023-02-26T21:56:52;6.73;71.62
70170;DHT22;57543;45.442;9.212;2023-02-26T21:59:56;6.78;71.79
70170;DHT22;57543;45.442;9.212;2023-02-26T22:02:59;6.89;71.54
70170;DHT22;57543;45.442;9.212;2023-02-26T22:06:03;6.85;70.62
70170;DHT22;57543;45.442;9.212;2023-02-26T22:09:08;6.75;70.80
70170;DHT22;57543;45.442;9.212;2023-02-26T22:12:11;6.78;71.08
70170;DHT22;57543;45.442;9.212;2023-02-26T22:15:15;6.69;70.60
70170;DHT22;57543;45.442;9.212;2023-02-26T22:18:22;6.49;71.47
70170;DHT22;57543;45.442;9.212;2023-02-26T22:21:25;6.69;71.40
70170;DHT22;57543;45.442;9.212;2023-02-26T22:24:29;6.75;71.13
70170;DHT22;57543;45.442;9.212;2023-02-26T22:27:33;6.49;72.07